Главная страница
METAR-TAF:

METAR-TAF

Аэропорты :

военная авиабаза

Тульн-на-Дунае, Австрия

широта: 48-19N, долгота: 016-07E, высота над уровнем моря: 175 м

METAR: отсутствует

Время: 00:30 (22:30 UTC)

Прогноз

Эта сводка был подготовлена 11 часа и 15 минут назад, в 11:15 UTC
Прогноз действительный с 25-го 12 UTC до 25-го 21 UTC
Ветер 8 Узел от восточный
Видимость 10 км и более
Отдельные облака на высоте 30000 фута

TAF: LOXT 251115Z 2512/2521 10008KT 9999 SCT300

Метеонаблюдения и прогнозы для более 4000 аэропортов (сводки METAR и TAF).

Имеющиеся станции представлены на карте желтыми и красными точками.

Чтобы увидеть название станции, наведите на нее мышь.

Затем щелкните, чтобы увидеть метеонаблюдения и метеопрогнозы.

Управление картой: чтобы увеличить масштаб, щелкните зеленые кнопки с черным крестиком; чтобы уменьшить масштаб, щелкните зеленую кнопку с тире; для просмотра соседних карт щелкайте зеленые стрелки.


METAR-TAF: